Time;durP1;ratioP1;P1;durP2;ratioP2;P2;SDS_P1;SDS_P2;PMS_P1;PMS_P2;Temp;Humidity;BMP_temperature;BMP_pressure;BME280_temperature;BME280_humidity;BME280_pressure;Samples;Min_cycle;Max_cycle;Signal;HPM_P1;HPM_P2
2021/12/22 00:01:22;;;;;;;26.30;17.67;;;-4.20;99.90;;;;;;5032236;28;20072;-48
2021/12/22 00:03:48;;;;;;;26.20;17.80;;;-4.20;99.90;;;;;;5032154;28;20483;-49
2021/12/22 00:06:18;;;;;;;30.00;19.17;;;-4.20;99.90;;;;;;5032092;28;20033;-48
2021/12/22 00:08:44;;;;;;;28.13;18.95;;;-4.20;99.90;;;;;;5032306;28;20033;-50
2021/12/22 00:11:10;;;;;;;26.58;17.65;;;-4.20;99.90;;;;;;5032319;28;20029;-48
2021/12/22 00:13:35;;;;;;;32.35;18.23;;;-4.30;99.90;;;;;;5031356;28;20025;-50
2021/12/22 00:16:01;;;;;;;27.20;17.58;;;-4.20;99.90;;;;;;5032130;28;20392;-48
2021/12/22 00:18:27;;;;;;;27.52;17.90;;;-4.30;99.90;;;;;;5031573;28;20375;-50
2021/12/22 00:20:52;;;;;;;31.90;18.73;;;-4.30;99.90;;;;;;5032349;28;20033;-49
2021/12/22 00:23:18;;;;;;;25.33;18.00;;;-4.30;99.90;;;;;;5032295;28;20095;-47
2021/12/22 00:25:43;;;;;;;31.33;19.40;;;-4.30;99.90;;;;;;5031820;28;20037;-49
2021/12/22 00:28:09;;;;;;;22.75;16.85;;;-4.30;99.90;;;;;;5031903;28;20033;-50
2021/12/22 00:30:36;;;;;;;27.77;16.48;;;-4.30;99.90;;;;;;5032072;28;20055;-48
2021/12/22 00:33:04;;;;;;;24.33;15.73;;;-4.30;99.90;;;;;;5030908;28;20041;-49
2021/12/22 00:35:41;;;;;;;26.08;17.10;;;-4.30;99.90;;;;;;5029765;28;20025;-47
2021/12/22 00:38:07;;;;;;;;;;;-4.30;99.90;;;;;;5031939;28;20030;-49
2021/12/22 00:40:33;;;;;;;24.88;16.17;;;-4.30;99.90;;;;;;5031951;28;19935;-50
2021/12/22 00:42:59;;;;;;;24.77;15.43;;;-4.40;99.90;;;;;;5031570;28;20030;-51
2021/12/22 00:45:28;;;;;;;22.38;16.42;;;-4.40;99.90;;;;;;5031021;28;20066;-50
2021/12/22 00:47:54;;;;;;;24.40;18.17;;;-4.40;99.90;;;;;;5031314;28;20125;-49
2021/12/22 00:50:19;;;;;;;27.20;17.45;;;-4.40;99.90;;;;;;5030570;28;20464;-50
2021/12/22 00:52:45;;;;;;;25.17;17.40;;;-4.40;99.90;;;;;;5031669;28;20040;-50
2021/12/22 00:55:14;;;;;;;26.08;17.80;;;-4.40;99.90;;;;;;5031307;28;20025;-51
2021/12/22 00:57:39;;;;;;;31.08;17.75;;;-4.50;99.90;;;;;;5031329;28;20440;-49
2021/12/22 01:00:07;;;;;;;23.95;15.90;;;-4.50;99.90;;;;;;5031739;28;20064;-48
2021/12/22 01:02:33;;;;;;;26.17;17.77;;;-4.50;99.90;;;;;;5031251;28;20029;-49
2021/12/22 01:04:58;;;;;;;24.50;17.23;;;-4.50;99.90;;;;;;5031315;28;20021;-49
2021/12/22 01:07:24;;;;;;;25.67;16.90;;;-4.50;99.90;;;;;;5031485;28;20030;-49
2021/12/22 01:09:50;;;;;;;26.45;17.85;;;-4.50;99.90;;;;;;5030430;28;20107;-51
2021/12/22 01:12:15;;;;;;;26.40;18.00;;;-4.50;99.90;;;;;;5031429;28;20120;-50
2021/12/22 01:14:41;;;;;;;23.52;16.17;;;-4.50;99.90;;;;;;5030974;28;20033;-50
2021/12/22 01:17:11;;;;;;;21.33;16.52;;;-4.50;99.90;;;;;;5031548;28;20041;-49
2021/12/22 01:19:45;;;;;;;26.60;16.30;;;-4.50;99.90;;;;;;5031064;28;20040;-51
2021/12/22 01:25:12;;;;;;;23.25;16.65;;;-4.50;99.90;;;;;;5018118;28;20048;-49
2021/12/22 01:27:41;;;;;;;26.02;17.27;;;-4.50;99.90;;;;;;5030220;28;20040;-49
2021/12/22 01:30:21;;;;;;;21.02;16.48;;;-4.50;99.90;;;;;;5030880;28;20037;-50
2021/12/22 01:32:48;;;;;;;24.50;16.77;;;-4.50;99.90;;;;;;5026889;28;20041;-51
2021/12/22 01:35:20;;;;;;;23.85;15.80;;;-4.60;99.90;;;;;;5030502;28;20442;-50
2021/12/22 01:37:46;;;;;;;27.52;16.38;;;-4.60;99.90;;;;;;5030512;28;20037;-49
2021/12/22 01:40:12;;;;;;;24.80;14.88;;;-4.60;99.90;;;;;;5030081;28;20028;-50
2021/12/22 01:42:39;;;;;;;20.98;15.27;;;-4.60;99.90;;;;;;5030658;28;20574;-47
2021/12/22 01:45:29;;;;;;;22.13;15.20;;;-4.60;99.90;;;;;;5030115;28;20074;-52
2021/12/22 01:50:44;;;;;;;23.08;14.90;;;-4.60;99.90;;;;;;5026381;28;20040;-52
2021/12/22 01:53:40;;;;;;;17.80;12.73;;;-4.60;99.90;;;;;;5031048;28;20436;-50
2021/12/22 01:58:46;;;;;;;19.27;13.77;;;-4.70;99.90;;;;;;5028226;28;20136;-51
2021/12/22 02:01:14;;;;;;;22.40;15.15;;;-4.70;99.90;;;;;;5027794;28;20116;-48
2021/12/22 02:03:41;;;;;;;21.42;14.13;;;-4.70;99.90;;;;;;5027593;28;20022;-50
2021/12/22 02:06:08;;;;;;;21.38;14.30;;;-4.70;99.90;;;;;;5030169;28;20112;-49
2021/12/22 02:08:35;;;;;;;19.77;13.50;;;-4.70;99.90;;;;;;5029856;28;20487;-49
2021/12/22 02:11:01;;;;;;;19.67;13.35;;;-4.70;99.90;;;;;;5030217;28;20036;-48
2021/12/22 02:13:32;;;;;;;19.48;13.45;;;-4.70;99.90;;;;;;5030002;28;20025;-49
2021/12/22 02:16:07;;;;;;;21.88;13.93;;;-4.70;99.90;;;;;;5030134;28;20056;-48
2021/12/22 02:18:35;;;;;;;20.50;13.65;;;-4.80;99.90;;;;;;5030355;28;20026;-49
2021/12/22 02:21:01;;;;;;;20.45;14.02;;;-4.80;99.90;;;;;;5029635;28;20099;-47
2021/12/22 02:23:26;;;;;;;21.35;13.43;;;-4.80;99.90;;;;;;5030010;28;20120;-49
2021/12/22 02:25:57;;;;;;;22.88;13.98;;;-4.80;99.90;;;;;;5030257;28;20556;-49
2021/12/22 02:28:28;;;;;;;20.80;13.82;;;-4.80;99.90;;;;;;5030094;28;20040;-51
2021/12/22 02:30:54;;;;;;;21.48;13.68;;;-4.80;99.90;;;;;;5029536;28;20120;-50
2021/12/22 02:33:34;;;;;;;19.17;13.80;;;-4.80;99.90;;;;;;5030173;28;20472;-48
2021/12/22 02:38:31;;;;;;;22.85;13.95;;;-4.80;99.90;;;;;;5029394;28;20030;-48
2021/12/22 02:40:57;;;;;;;20.90;13.70;;;-4.90;99.90;;;;;;5030040;28;20044;-49
2021/12/22 02:43:24;;;;;;;24.02;14.20;;;-4.90;99.90;;;;;;5029726;28;20038;-49
2021/12/22 02:45:51;;;;;;;18.83;13.68;;;-4.90;99.90;;;;;;5029792;28;20306;-49
2021/12/22 02:48:17;;;;;;;18.35;13.98;;;-4.90;99.90;;;;;;5027956;28;20036;-49
2021/12/22 02:50:44;;;;;;;19.95;13.93;;;-4.90;99.90;;;;;;5028879;28;20048;-50
2021/12/22 02:53:13;;;;;;;20.58;13.90;;;-4.90;99.90;;;;;;5029516;28;20033;-51
2021/12/22 02:55:52;;;;;;;21.67;12.68;;;-4.90;99.90;;;;;;5029374;28;20018;-52
2021/12/22 03:01:25;;;;;;;19.00;13.00;;;-4.90;99.90;;;;;;5017989;28;20037;-50
2021/12/22 03:04:00;;;;;;;21.52;13.43;;;-5.00;99.90;;;;;;5029532;28;20546;-50
2021/12/22 03:06:55;;;;;;;24.70;14.23;;;-4.90;99.90;;;;;;5030015;28;20102;-51
2021/12/22 03:09:29;;;;;;;21.20;13.82;;;-5.00;99.90;;;;;;5023784;28;20029;-51
2021/12/22 03:11:58;;;;;;;24.23;14.13;;;-5.00;99.90;;;;;;5029429;28;20036;-50
2021/12/22 03:14:25;;;;;;;20.52;13.07;;;-5.00;99.90;;;;;;5029403;28;20083;-50
2021/12/22 03:16:52;;;;;;;20.88;14.15;;;-5.00;99.90;;;;;;5029376;28;20029;-50
2021/12/22 03:19:24;;;;;;;19.60;12.73;;;-5.00;99.90;;;;;;5028514;28;20041;-49
2021/12/22 03:21:53;;;;;;;22.65;13.32;;;-5.00;99.90;;;;;;5028107;28;20025;-50
2021/12/22 03:24:21;;;;;;;24.70;14.15;;;-5.00;99.90;;;;;;5029188;28;20093;-49
2021/12/22 03:26:46;;;;;;;19.50;12.55;;;-5.00;99.90;;;;;;5029493;28;20032;-49
2021/12/22 03:29:15;;;;;;;18.58;13.70;;;-5.00;99.90;;;;;;5029072;28;20025;-51
2021/12/22 03:31:41;;;;;;;21.63;12.98;;;-5.00;99.90;;;;;;5029118;28;20033;-51
2021/12/22 03:34:08;;;;;;;18.95;13.45;;;-5.00;99.90;;;;;;5028725;28;20033;-49
2021/12/22 03:36:34;;;;;;;20.67;12.73;;;-5.00;99.90;;;;;;5027861;28;20035;-50
2021/12/22 03:39:00;;;;;;;18.70;12.63;;;-5.10;99.90;;;;;;5028703;28;20025;-51
2021/12/22 03:41:26;;;;;;;17.35;11.98;;;-5.10;99.90;;;;;;5028840;28;20458;-52
2021/12/22 03:43:52;;;;;;;19.85;12.27;;;-5.10;99.90;;;;;;5029000;28;20026;-51
2021/12/22 03:46:17;;;;;;;15.63;11.63;;;-5.10;99.90;;;;;;5029428;28;20503;-50
2021/12/22 03:48:43;;;;;;;20.23;13.50;;;-5.10;99.90;;;;;;5028640;28;20037;-49
2021/12/22 03:51:09;;;;;;;16.38;11.25;;;-5.10;99.90;;;;;;5028559;28;20029;-50
2021/12/22 03:53:35;;;;;;;17.05;11.73;;;-5.20;99.90;;;;;;5028883;28;20032;-50
2021/12/22 03:56:00;;;;;;;17.55;12.07;;;-5.20;99.90;;;;;;5028874;28;20038;-50
2021/12/22 03:58:26;;;;;;;19.77;11.45;;;-5.20;99.90;;;;;;5028518;28;20108;-49
2021/12/22 04:00:55;;;;;;;14.10;10.93;;;-5.20;99.90;;;;;;5029032;28;20607;-49
2021/12/22 04:03:23;;;;;;;15.57;10.60;;;-5.20;99.90;;;;;;5027029;28;20400;-50
2021/12/22 04:05:49;;;;;;;16.55;10.80;;;-5.20;99.90;;;;;;5029065;28;20030;-51
2021/12/22 04:08:18;;;;;;;20.35;11.95;;;-5.20;99.90;;;;;;5030657;28;20096;-49
2021/12/22 04:10:44;;;;;;;17.60;11.80;;;-5.20;99.90;;;;;;5032246;28;20483;-49
2021/12/22 04:13:10;;;;;;;17.75;10.73;;;-5.30;99.90;;;;;;5032538;28;20566;-48
2021/12/22 04:15:36;;;;;;;15.52;10.18;;;-5.30;99.90;;;;;;5032508;28;20072;-51
2021/12/22 04:18:02;;;;;;;16.02;10.43;;;-5.30;99.90;;;;;;5032190;28;20040;-49
2021/12/22 04:20:29;;;;;;;15.55;10.40;;;-5.30;99.90;;;;;;5032408;28;20040;-50
2021/12/22 04:22:55;;;;;;;15.88;10.57;;;-5.30;99.90;;;;;;5031309;28;20087;-49
2021/12/22 04:25:21;;;;;;;17.65;11.43;;;-5.30;99.90;;;;;;5032446;28;20036;-48
2021/12/22 04:27:49;;;;;;;15.15;10.27;;;-5.30;99.90;;;;;;5032769;28;20025;-50
2021/12/22 04:30:15;;;;;;;13.80;9.70;;;-5.30;99.90;;;;;;5032395;28;20457;-49
2021/12/22 04:32:40;;;;;;;18.23;11.18;;;-5.30;99.90;;;;;;5031758;28;20032;-49
2021/12/22 04:35:06;;;;;;;15.38;9.93;;;-5.30;99.90;;;;;;5031361;28;20042;-49
2021/12/22 04:37:32;;;;;;;15.07;11.02;;;-5.40;99.90;;;;;;5031518;28;20041;-48
2021/12/22 04:39:57;;;;;;;15.15;10.52;;;-5.30;99.90;;;;;;5031368;28;20377;-50
2021/12/22 04:42:23;;;;;;;16.30;11.18;;;-5.40;99.90;;;;;;5032005;28;20530;-48
2021/12/22 04:44:53;;;;;;;14.75;9.60;;;-5.30;99.90;;;;;;5031926;28;20160;-49
2021/12/22 04:47:19;;;;;;;16.48;11.18;;;-5.40;99.90;;;;;;5032117;28;20037;-48
2021/12/22 04:49:45;;;;;;;15.27;10.40;;;-5.40;99.90;;;;;;5030752;28;20026;-50
2021/12/22 04:52:15;;;;;;;14.80;10.15;;;-5.40;99.90;;;;;;5030385;28;20048;-49
2021/12/22 04:54:49;;;;;;;15.93;10.73;;;-5.50;99.90;;;;;;5031863;28;20048;-49
2021/12/22 04:57:15;;;;;;;16.83;10.70;;;-5.50;99.90;;;;;;5031666;28;20029;-50
2021/12/22 04:59:40;;;;;;;15.00;10.82;;;-5.50;99.90;;;;;;5031257;28;20480;-50
2021/12/22 05:02:06;;;;;;;15.48;10.48;;;-5.50;99.90;;;;;;5029615;28;20072;-48
2021/12/22 05:04:31;;;;;;;17.48;10.57;;;-5.50;99.90;;;;;;5031237;28;20034;-49
2021/12/22 05:06:57;;;;;;;15.90;10.75;;;-5.50;99.90;;;;;;5031907;28;20357;-48
2021/12/22 05:09:23;;;;;;;17.38;10.50;;;-5.50;99.90;;;;;;5030900;28;20033;-50
2021/12/22 05:11:50;;;;;;;14.80;10.02;;;-5.60;99.90;;;;;;5031121;28;20033;-49
2021/12/22 05:14:16;;;;;;;18.92;10.82;;;-5.60;99.90;;;;;;5031280;28;20059;-49
2021/12/22 05:16:46;;;;;;;14.30;9.52;;;-5.50;99.90;;;;;;5031259;28;20069;-49
2021/12/22 05:19:14;;;;;;;14.15;9.88;;;-5.60;99.90;;;;;;5030205;28;20484;-50
2021/12/22 05:21:41;;;;;;;14.75;10.25;;;-5.60;99.90;;;;;;5029694;28;20487;-49
2021/12/22 05:24:07;;;;;;;13.98;10.20;;;-5.60;99.90;;;;;;5030940;28;20052;-48
2021/12/22 05:26:32;;;;;;;15.52;10.35;;;-5.60;99.90;;;;;;5022896;28;20100;-49
2021/12/22 05:28:58;;;;;;;14.43;10.27;;;-5.60;99.90;;;;;;5030750;28;20480;-49
2021/12/22 05:31:24;;;;;;;14.30;8.82;;;-5.70;99.90;;;;;;5031284;28;20480;-47
2021/12/22 05:33:50;;;;;;;16.30;10.38;;;-5.70;99.90;;;;;;5030747;28;20060;-48
2021/12/22 05:36:16;;;;;;;20.35;10.10;;;-5.70;99.90;;;;;;5031472;28;20495;-49
2021/12/22 05:38:43;;;;;;;14.77;10.35;;;-5.70;99.90;;;;;;5030885;28;20502;-49
2021/12/22 05:41:08;;;;;;;14.82;9.98;;;-5.70;99.90;;;;;;5030435;28;20040;-49
2021/12/22 05:43:34;;;;;;;14.07;9.48;;;-5.70;99.90;;;;;;5030909;28;20497;-49
2021/12/22 05:46:00;;;;;;;18.45;10.98;;;-5.70;99.90;;;;;;5029604;28;20120;-48
2021/12/22 05:48:27;;;;;;;15.75;9.70;;;-5.70;99.90;;;;;;5028626;28;20636;-51
2021/12/22 05:50:57;;;;;;;14.88;9.85;;;-5.70;99.90;;;;;;5029295;28;20396;-49
2021/12/22 05:53:23;;;;;;;16.75;10.30;;;-5.70;99.90;;;;;;5029394;28;20033;-48
2021/12/22 05:55:48;;;;;;;17.10;10.25;;;-5.70;99.90;;;;;;5030472;28;20492;-49
2021/12/22 05:58:14;;;;;;;15.95;9.55;;;-5.70;99.90;;;;;;5030304;28;20029;-49
2021/12/22 06:00:40;;;;;;;17.45;9.82;;;-5.70;99.90;;;;;;5030205;28;20124;-50
2021/12/22 06:03:06;;;;;;;14.27;9.10;;;-5.70;99.90;;;;;;5029914;28;20029;-47
2021/12/22 06:05:31;;;;;;;16.20;10.25;;;-5.80;99.90;;;;;;5030538;28;20040;-49
2021/12/22 06:07:57;;;;;;;15.98;10.38;;;-5.80;99.90;;;;;;5029952;28;20059;-49
2021/12/22 06:10:22;;;;;;;16.10;10.23;;;-5.80;99.90;;;;;;5029959;28;20117;-49
2021/12/22 06:12:48;;;;;;;17.80;9.88;;;-5.80;99.90;;;;;;5030411;28;20061;-49
2021/12/22 06:15:14;;;;;;;16.90;9.88;;;-5.80;99.90;;;;;;5030714;28;20038;-50
2021/12/22 06:17:39;;;;;;;17.52;9.93;;;-5.80;99.90;;;;;;5029967;28;20087;-51
2021/12/22 06:20:06;;;;;;;14.82;10.02;;;-5.80;99.90;;;;;;5030057;28;20369;-48
2021/12/22 06:22:34;;;;;;;17.50;9.80;;;-5.80;99.90;;;;;;5030019;28;20484;-47
2021/12/22 06:24:59;;;;;;;14.45;10.52;;;-5.80;99.90;;;;;;5029708;28;20392;-48
2021/12/22 06:27:25;;;;;;;18.58;9.80;;;-5.90;99.90;;;;;;5029662;28;20264;-49
2021/12/22 06:29:50;;;;;;;13.23;9.55;;;-5.90;99.90;;;;;;5029691;28;20476;-49
2021/12/22 06:32:16;;;;;;;15.77;10.52;;;-5.90;99.90;;;;;;5028759;28;20029;-49
2021/12/22 06:34:41;;;;;;;16.50;9.75;;;-5.90;99.90;;;;;;5029611;28;20501;-49
2021/12/22 06:37:07;;;;;;;18.25;10.93;;;-5.90;99.90;;;;;;5029782;28;20491;-49
2021/12/22 06:39:33;;;;;;;17.77;10.18;;;-5.90;99.90;;;;;;5028863;28;20035;-49
2021/12/22 06:42:00;;;;;;;16.60;10.45;;;-5.90;99.90;;;;;;5029278;28;20034;-49
2021/12/22 06:44:26;;;;;;;14.13;9.65;;;-5.90;99.90;;;;;;5030195;28;20040;-51
2021/12/22 06:46:52;;;;;;;14.50;10.10;;;-5.90;99.90;;;;;;5030244;28;20032;-49
2021/12/22 06:49:23;;;;;;;18.10;9.77;;;-5.90;99.90;;;;;;5029245;28;20018;-49
2021/12/22 06:51:50;;;;;;;16.67;9.23;;;-5.90;99.90;;;;;;5029322;28;20033;-49
2021/12/22 06:54:16;;;;;;;17.63;9.98;;;-5.90;99.90;;;;;;5029071;28;20476;-47
2021/12/22 06:56:41;;;;;;;17.13;10.07;;;-5.90;99.90;;;;;;5030069;28;20036;-48
2021/12/22 06:59:07;;;;;;;16.08;9.85;;;-5.90;99.90;;;;;;5029169;28;20468;-50
2021/12/22 07:01:34;;;;;;;15.40;11.02;;;-5.90;99.90;;;;;;5029317;28;20055;-48
2021/12/22 07:04:00;;;;;;;18.42;11.63;;;-5.90;99.90;;;;;;5029450;28;20025;-48
2021/12/22 07:06:26;;;;;;;17.45;10.50;;;-5.90;99.90;;;;;;5029652;28;20168;-49
2021/12/22 07:08:52;;;;;;;16.02;9.80;;;-5.90;99.90;;;;;;5029425;28;20113;-48
2021/12/22 07:11:17;;;;;;;16.00;10.77;;;-6.00;99.90;;;;;;5029410;28;20021;-49
2021/12/22 07:13:43;;;;;;;21.00;10.93;;;-6.00;99.90;;;;;;5029441;28;20119;-49
2021/12/22 07:16:11;;;;;;;16.35;10.20;;;-5.90;99.90;;;;;;5029295;28;20484;-48
2021/12/22 07:18:37;;;;;;;18.40;11.00;;;-5.90;99.90;;;;;;5028891;28;20037;-48
2021/12/22 07:21:03;;;;;;;19.20;10.60;;;-5.90;99.90;;;;;;5029493;28;20081;-48
2021/12/22 07:23:28;;;;;;;17.67;11.65;;;-5.90;99.90;;;;;;5029195;28;20029;-47
2021/12/22 07:25:54;;;;;;;17.45;10.88;;;-5.90;99.90;;;;;;5029275;28;20084;-49
2021/12/22 07:28:20;;;;;;;14.95;9.73;;;-5.90;99.90;;;;;;5028103;28;20116;-49
2021/12/22 07:30:45;;;;;;;19.38;9.95;;;-5.90;99.90;;;;;;5026947;28;20112;-49
2021/12/22 07:33:11;;;;;;;23.25;11.15;;;-5.90;99.90;;;;;;5028998;28;20029;-49
2021/12/22 07:35:53;;;;;;;18.63;11.40;;;-5.90;99.90;;;;;;5029604;28;20092;-49
2021/12/22 07:38:23;;;;;;;18.30;10.55;;;-5.90;99.90;;;;;;5029137;28;20022;-49
2021/12/22 07:40:48;;;;;;;17.50;10.90;;;-5.90;99.90;;;;;;5029386;28;20043;-48
2021/12/22 07:43:14;;;;;;;19.15;11.20;;;-5.90;99.90;;;;;;5030386;28;20484;-47
2021/12/22 07:45:39;;;;;;;23.05;11.10;;;-5.90;99.90;;;;;;5031912;28;20086;-48
2021/12/22 07:48:05;;;;;;;19.60;11.10;;;-5.90;99.90;;;;;;5032669;28;20108;-51
2021/12/22 07:50:30;;;;;;;19.17;10.80;;;-5.90;99.90;;;;;;5032592;28;20064;-47
2021/12/22 07:52:56;;;;;;;20.85;11.23;;;-5.90;99.90;;;;;;5033167;28;20033;-49
2021/12/22 07:55:22;;;;;;;17.65;10.88;;;-5.90;99.90;;;;;;5033176;28;20064;-49
2021/12/22 07:57:47;;;;;;;22.02;13.30;;;-5.90;99.90;;;;;;5032798;28;20070;-50
2021/12/22 08:00:13;;;;;;;27.55;13.27;;;-5.80;99.90;;;;;;5032943;28;20037;-48
2021/12/22 08:02:39;;;;;;;28.95;13.57;;;-5.90;99.90;;;;;;5032499;28;20026;-49
2021/12/22 08:05:05;;;;;;;27.48;13.98;;;-5.80;99.90;;;;;;5033108;28;20099;-48
2021/12/22 08:07:31;;;;;;;25.83;14.40;;;-5.80;99.90;;;;;;5032810;28;20092;-49
2021/12/22 08:09:56;;;;;;;28.17;13.85;;;-5.80;99.90;;;;;;5033129;28;20034;-48
2021/12/22 08:12:22;;;;;;;29.40;14.25;;;-5.80;99.90;;;;;;5032882;28;20034;-48
2021/12/22 08:14:47;;;;;;;25.05;14.95;;;-5.80;99.90;;;;;;5032653;28;20115;-48
2021/12/22 08:17:13;;;;;;;31.50;14.68;;;-5.80;99.90;;;;;;5032567;28;20122;-48
2021/12/22 08:19:40;;;;;;;28.65;16.05;;;-5.70;99.90;;;;;;5030828;28;20025;-47
2021/12/22 08:22:06;;;;;;;32.95;15.80;;;-5.70;99.90;;;;;;5031902;28;20043;-49
2021/12/22 08:24:32;;;;;;;24.50;14.30;;;-5.70;99.90;;;;;;5032608;28;20033;-47
2021/12/22 08:26:59;;;;;;;32.85;15.68;;;-5.70;99.90;;;;;;5032592;28;20029;-47
2021/12/22 08:29:24;;;;;;;38.72;18.10;;;-5.70;99.90;;;;;;5030784;28;20519;-47
2021/12/22 08:31:50;;;;;;;42.60;20.45;;;-5.60;99.90;;;;;;5030809;28;20120;-48
2021/12/22 08:34:23;;;;;;;62.63;29.63;;;-5.60;99.90;;;;;;5031436;28;20033;-50
2021/12/22 08:39:47;;;;;;;74.25;34.20;;;-5.50;99.90;;;;;;5014920;28;20041;-48
2021/12/22 08:42:13;;;;;;;79.17;38.30;;;-5.50;99.90;;;;;;5030721;28;20305;-47
2021/12/22 08:44:38;;;;;;;89.45;41.78;;;-5.40;99.90;;;;;;5031421;28;20430;-48
2021/12/22 08:47:04;;;;;;;106.45;49.90;;;-5.40;99.90;;;;;;5030663;28;20057;-48
2021/12/22 08:49:30;;;;;;;107.60;51.13;;;-5.40;99.90;;;;;;5031145;28;20049;-49
2021/12/22 08:51:56;;;;;;;111.07;49.60;;;-5.30;99.90;;;;;;5031476;28;20034;-50
2021/12/22 08:54:21;;;;;;;120.65;54.78;;;-5.30;99.90;;;;;;5021185;28;20124;-47
2021/12/22 08:56:47;;;;;;;94.65;43.65;;;-5.20;99.90;;;;;;5031663;28;20030;-50
2021/12/22 08:59:14;;;;;;;66.65;30.88;;;-5.20;99.90;;;;;;5031140;28;20116;-48
2021/12/22 09:01:41;;;;;;;49.53;24.50;;;-5.10;99.90;;;;;;5031089;28;20488;-47
2021/12/22 09:04:07;;;;;;;38.80;20.60;;;-5.10;99.90;;;;;;5032052;28;20045;-49
2021/12/22 09:06:32;;;;;;;41.90;22.55;;;-5.10;99.90;;;;;;5031436;28;20068;-48
2021/12/22 09:08:58;;;;;;;48.35;19.95;;;-5.00;99.90;;;;;;5031193;28;20399;-48
2021/12/22 09:11:25;;;;;;;32.60;17.95;;;-5.00;99.90;;;;;;5031220;28;20487;-48
2021/12/22 09:13:52;;;;;;;36.53;18.27;;;-4.90;99.90;;;;;;5031045;28;20025;-49
2021/12/22 09:16:17;;;;;;;36.80;17.13;;;-4.90;99.90;;;;;;5025706;28;20029;-50
2021/12/22 09:18:43;;;;;;;33.38;17.25;;;-4.90;99.90;;;;;;5027739;28;20034;-50
2021/12/22 09:21:11;;;;;;;32.40;17.15;;;-4.90;99.90;;;;;;5027035;28;20341;-48
2021/12/22 09:23:37;;;;;;;30.92;15.85;;;-4.80;99.90;;;;;;5026043;28;20038;-49
2021/12/22 09:26:05;;;;;;;35.30;16.02;;;-4.80;99.90;;;;;;5031610;28;20032;-49
2021/12/22 09:28:31;;;;;;;30.75;17.17;;;-4.80;99.90;;;;;;5019112;28;20033;-48
2021/12/22 09:30:57;;;;;;;29.48;16.15;;;-4.70;99.90;;;;;;5023819;28;20177;-49
2021/12/22 09:33:25;;;;;;;30.45;16.77;;;-4.70;99.90;;;;;;5031239;28;20042;-50
2021/12/22 09:35:52;;;;;;;26.83;16.67;;;-4.60;99.90;;;;;;5031777;28;20021;-48
2021/12/22 09:38:18;;;;;;;34.17;18.05;;;-4.60;99.90;;;;;;5030507;28;20539;-49
2021/12/22 09:40:45;;;;;;;37.53;18.75;;;-4.50;99.90;;;;;;5030855;28;20037;-49
2021/12/22 09:43:11;;;;;;;33.50;18.13;;;-4.50;99.90;;;;;;5030837;28;20026;-51
2021/12/22 09:45:42;;;;;;;30.52;16.98;;;-4.40;99.90;;;;;;5031516;28;20025;-49
2021/12/22 09:50:45;;;;;;;38.17;18.73;;;-4.40;99.90;;;;;;5030772;28;20029;-49
2021/12/22 09:53:11;;;;;;;35.55;17.35;;;-4.30;99.90;;;;;;5030509;28;20036;-51
2021/12/22 09:55:37;;;;;;;39.60;18.45;;;-4.20;99.90;;;;;;5030524;28;20030;-49
2021/12/22 09:58:04;;;;;;;45.47;19.25;;;-4.20;99.90;;;;;;5028795;28;20029;-49
2021/12/22 10:00:32;;;;;;;45.13;19.50;;;-4.20;99.90;;;;;;5030369;28;20029;-49
2021/12/22 10:02:58;;;;;;;32.95;16.50;;;-4.10;99.90;;;;;;5030559;28;20432;-49
2021/12/22 10:05:24;;;;;;;36.28;17.58;;;-4.10;99.90;;;;;;5030388;28;20110;-48
2021/12/22 10:08:14;;;;;;;27.38;15.65;;;-4.10;99.90;;;;;;5030150;28;20044;-49
2021/12/22 10:10:47;;;;;;;33.53;16.02;;;-4.10;99.90;;;;;;5030242;28;20033;-48
2021/12/22 10:13:16;;;;;;;37.30;17.58;;;-4.10;99.90;;;;;;5030450;28;20037;-49
2021/12/22 10:15:42;;;;;;;35.03;17.08;;;-4.10;99.90;;;;;;5029626;28;20033;-49
2021/12/22 10:18:14;;;;;;;34.67;17.60;;;-4.10;99.90;;;;;;5030443;28;20495;-49
2021/12/22 10:20:42;;;;;;;31.23;16.25;;;-4.00;99.90;;;;;;5029965;28;20140;-48
2021/12/22 10:23:22;;;;;;;34.97;17.13;;;-4.00;99.90;;;;;;5030109;28;20045;-48
2021/12/22 10:25:58;;;;;;;31.17;16.50;;;-4.00;99.90;;;;;;5029627;28;20029;-51
2021/12/22 10:28:24;;;;;;;;;;;-3.90;99.90;;;;;;5030402;28;20109;-50
2021/12/22 10:30:56;;;;;;;31.80;16.95;;;-3.90;99.90;;;;;;5029358;28;19921;-49
2021/12/22 10:33:31;;;;;;;30.05;16.48;;;-3.80;99.90;;;;;;5029988;28;20032;-49
2021/12/22 10:36:10;;;;;;;32.67;16.75;;;-3.80;99.90;;;;;;5029749;28;20116;-50
2021/12/22 10:38:35;;;;;;;35.08;16.63;;;-3.80;99.90;;;;;;5029407;28;20033;-49
2021/12/22 10:41:10;;;;;;;30.02;16.30;;;-3.70;99.90;;;;;;5029526;28;20033;-49
2021/12/22 10:43:45;;;;;;;35.63;17.45;;;-3.70;99.90;;;;;;5029883;28;20124;-48
2021/12/22 10:46:16;;;;;;;36.90;17.20;;;-3.60;99.90;;;;;;5029929;28;20030;-49
2021/12/22 10:51:33;;;;;;;32.00;16.65;;;-3.60;99.90;;;;;;5029151;28;20064;-49
2021/12/22 10:54:05;;;;;;;39.30;17.70;;;-3.50;99.90;;;;;;5029468;28;20276;-50
2021/12/22 10:56:32;;;;;;;35.65;17.25;;;-3.40;99.90;;;;;;5028789;28;20472;-49
2021/12/22 10:59:11;;;;;;;34.65;18.33;;;-3.40;99.90;;;;;;5029053;28;20029;-49
2021/12/22 11:02:05;;;;;;;36.28;17.15;;;-3.30;99.90;;;;;;5022482;28;20029;-50
2021/12/22 11:04:33;;;;;;;34.45;18.60;;;-3.30;99.90;;;;;;5029466;28;20468;-50
2021/12/22 11:07:28;;;;;;;36.08;19.00;;;-3.30;99.90;;;;;;5029561;28;20033;-49
2021/12/22 11:09:54;;;;;;;38.53;17.60;;;-3.30;99.90;;;;;;5027511;28;20041;-51
2021/12/22 11:12:39;;;;;;;40.88;18.48;;;-3.20;99.90;;;;;;5029219;28;20045;-50
2021/12/22 11:15:05;;;;;;;40.63;18.48;;;-3.20;99.90;;;;;;5028479;28;20064;-49
2021/12/22 11:17:31;;;;;;;38.83;20.17;;;-3.20;99.90;;;;;;5028348;28;20048;-51
2021/12/22 11:20:05;;;;;;;39.90;18.55;;;-3.10;99.90;;;;;;5028927;28;20034;-50
2021/12/22 11:22:47;;;;;;;37.28;18.13;;;-3.10;99.90;;;;;;5029643;28;20033;-48
2021/12/22 11:25:13;;;;;;;36.33;17.70;;;-3.00;99.90;;;;;;5029458;28;20036;-50
2021/12/22 11:27:39;;;;;;;34.22;18.38;;;-3.00;99.90;;;;;;5028950;28;20026;-48
2021/12/22 11:30:06;;;;;;;35.83;17.67;;;-3.00;99.90;;;;;;5029429;28;20029;-51
2021/12/22 11:32:33;;;;;;;38.08;18.00;;;-2.90;99.90;;;;;;5029383;28;20033;-50
2021/12/22 11:35:01;;;;;;;36.30;19.27;;;-2.90;99.90;;;;;;5029729;28;20026;-50
2021/12/22 11:37:27;;;;;;;43.17;20.77;;;-2.80;99.90;;;;;;5028760;28;20487;-50
2021/12/22 11:39:55;;;;;;;35.05;18.52;;;-2.80;99.90;;;;;;5029036;28;20476;-48
2021/12/22 11:42:24;;;;;;;33.15;18.35;;;-2.80;99.90;;;;;;5028874;28;20124;-48
2021/12/22 11:44:57;;;;;;;40.40;19.80;;;-2.70;99.90;;;;;;5029012;28;20087;-50
2021/12/22 11:47:23;;;;;;;30.58;17.58;;;-2.70;99.90;;;;;;5029368;28;20030;-48
2021/12/22 11:50:15;;;;;;;37.55;19.48;;;-2.70;99.90;;;;;;5028475;28;20082;-49
2021/12/22 11:52:43;;;;;;;33.28;17.75;;;-2.60;99.90;;;;;;5029480;28;20488;-48
2021/12/22 11:55:11;;;;;;;32.90;16.77;;;-2.60;99.90;;;;;;5028670;28;20060;-50
2021/12/22 11:57:37;;;;;;;33.05;18.27;;;-2.60;99.90;;;;;;5028822;28;20042;-50
2021/12/22 12:00:23;;;;;;;31.55;16.63;;;-2.50;99.90;;;;;;5029070;28;20028;-51
2021/12/22 12:02:50;;;;;;;35.20;15.20;;;-2.50;99.90;;;;;;5028995;28;20040;-51
2021/12/22 12:05:19;;;;;;;21.15;13.10;;;-2.40;99.90;;;;;;5029085;28;20033;-52
2021/12/22 12:07:56;;;;;;;25.48;14.75;;;-2.40;99.90;;;;;;5028853;28;20028;-50
2021/12/22 12:10:33;;;;;;;28.27;14.65;;;-2.40;99.90;;;;;;5028744;28;20032;-50
2021/12/22 12:13:05;;;;;;;27.85;14.77;;;-2.40;99.90;;;;;;5028116;28;20466;-49
2021/12/22 12:22:11;;;;;;;25.35;14.10;;;-2.30;99.90;;;;;;5028356;28;20107;-50
2021/12/22 12:24:42;;;;;;;24.20;13.82;;;-2.30;99.90;;;;;;5028562;28;20025;-50
2021/12/22 12:27:29;;;;;;;29.42;13.65;;;-2.30;99.90;;;;;;5028808;28;20036;-48
2021/12/22 12:30:05;;;;;;;24.20;12.98;;;-2.30;99.90;;;;;;5029998;28;20020;-49
2021/12/22 12:32:40;;;;;;;22.30;12.02;;;-2.30;99.90;;;;;;5033123;28;20048;-50
2021/12/22 12:35:18;;;;;;;24.70;12.68;;;-2.20;99.90;;;;;;5031895;28;20044;-49
2021/12/22 12:37:58;;;;;;;23.08;13.20;;;-2.20;99.90;;;;;;5032475;28;20531;-50
2021/12/22 12:40:45;;;;;;;18.23;12.45;;;-2.20;99.90;;;;;;5032031;28;20224;-50
2021/12/22 12:43:10;;;;;;;;;;;-2.20;99.90;;;;;;5032556;28;20041;-50
2021/12/22 12:45:48;;;;;;;22.13;11.40;;;-2.20;99.90;;;;;;5032731;28;19909;-49
2021/12/22 12:48:28;;;;;;;21.27;12.38;;;-2.20;99.90;;;;;;5032214;28;20026;-51
2021/12/22 12:51:14;;;;;;;26.85;14.27;;;-2.30;99.90;;;;;;5032109;28;20112;-50
2021/12/22 12:53:43;;;;;;;24.13;12.85;;;-2.30;99.90;;;;;;5031892;28;20035;-51
2021/12/22 12:56:10;;;;;;;28.65;14.00;;;-2.30;99.90;;;;;;5031966;28;20113;-51
2021/12/22 12:58:52;;;;;;;21.90;12.98;;;-2.30;99.90;;;;;;5031457;28;20110;-50
2021/12/22 13:01:18;;;;;;;25.17;12.35;;;-2.30;99.90;;;;;;5032135;28;20032;-51
2021/12/22 13:03:49;;;;;;;26.23;14.30;;;-2.40;99.90;;;;;;5031823;28;20037;-50